Thursday, April 26, 2018, 8:57 PM GMT
Back to Local

CWEP, East Point, P. E. I

Location: , , Canada Lat: 46.45
Local Time: 8:57 PM GMT (20:57 GMT) Lon: -61.967
Time Zone: GMT Elev: 36 ft

Show me the last for .
Show Coded

Time T Td Feel RH Dir Speed Gust Alt SLP Vis Weather Sky Remarks
2018-04-26 20:00 48 46 39 92 140° 25 35 - 29.74 0 Peak wind: 35 mph (31 kts) from 150° at 36 min
1-hr Precip Total: 0.01"
2018-04-26 19:00 49 47 40 93 140° 24 30 - 29.77 0 Peak wind: 33 mph (29 kts) from 150° at 18 min
Pressure falling rapidly
1-hr Precip Total: 0.04"
2018-04-26 18:00 48 46 39 92 140° 23 33 - 29.83 0 Peak wind: 33 mph (29 kts) from 140° at 55 min
2018-04-26 17:00 49 46 42 87 140° 18 26 - 29.88 0 Peak wind: 27 mph (24 kts) from 160° at 02 min
2018-04-26 16:00 47 44 38 90 140° 18 28 - 29.93 0 Peak wind: 29 mph (26 kts) from 150° at 26 min
2018-04-26 15:00 48 45 39 89 150° 23 31 - 29.98 0 Peak wind: 32 mph (28 kts) from 140° at 25 min
2018-04-26 14:00 45 42 36 90 160° 20 26 - 30.00 0 Peak wind: 26 mph (23 kts) from 150° at 56 min
2018-04-26 13:00 49 43 40 82 140° 20 28 - 30.03 0 Peak wind: 31 mph (27 kts) from 150° at 03 min
2018-04-26 12:00 47 43 38 85 140° 22 29 - 30.05 0 Peak wind: 28 mph (25 kts) from 130° at 55 min
2018-04-26 11:00 45 41 37 85 140° 15 22 - 30.08 0 Peak wind: 29 mph (26 kts) from 140° at 12 min
2018-04-26 10:00 46 43 37 90 150° 17 23 - 30.09 0 Peak wind: 24 mph (21 kts) from 130° at 35 min
2018-04-26 09:00 43 41 34 91 150° 16 22 - 30.10 0 Peak wind: 21 mph (19 kts) from 150° at 26 min
2018-04-26 08:00 45 43 39 90 160° 14 - - 30.10 0 Peak wind: 19 mph (17 kts) from 160° at 42 min
2018-04-26 07:00 44 41 36 88 160° 14 21 - 30.13 0 Peak wind: 21 mph (19 kts) from 150° at 47 min
2018-04-26 06:00 43 39 34 86 170° 10 18 - 30.14 0 None
2018-04-26 05:00 43 39 38 85 170° 8 - - 30.16 0 None
2018-04-26 04:00 44 39 40 81 170° 8 - - 30.18 0 None
2018-04-26 03:00 43 38 37 82 180° 12 - - 30.19 0 Peak wind: 19 mph (17 kts) from 190° at 08 min
2018-04-26 02:00 47 40 39 75 200° 15 22 - 30.19 0 Peak wind: 21 mph (19 kts) from 190° at 05 min
2018-04-26 01:00 48 38 41 68 200° 15 23 - 30.20 0 Peak wind: 26 mph (23 kts) from 190° at 45 min
2018-04-26 00:00 46 39 39 76 190° 14 - - 30.19 0 Peak wind: 19 mph (17 kts) from 190° at 49 min
2018-04-25 23:00 49 39 44 68 200° 13 - - 30.17 0 Peak wind: 19 mph (17 kts) from 220° at 04 min
2018-04-25 22:00 52 38 - 59 210° 15 - - 30.17 0 Peak wind: 24 mph (21 kts) from 210° at 38 min
2018-04-25 21:00 52 37 - 56 200° 13 - - 30.17 0 None

Support USWX by starting your Amazon purchase here.